createdAt,value
2022-08-28T00:00:40.139Z,20.09
2022-08-28T00:01:37.909Z,20.13
2022-08-28T00:02:38.147Z,20.13
2022-08-28T00:03:37.967Z,20.12
2022-08-28T00:04:38.943Z,20.09
2022-08-28T00:05:37.823Z,20.08
2022-08-28T00:06:37.914Z,20.11
2022-08-28T00:07:37.840Z,20.12
2022-08-28T00:08:37.851Z,20.14
2022-08-28T00:09:37.778Z,20.15
2022-08-28T00:10:37.883Z,20.15
2022-08-28T00:11:37.733Z,20.16
2022-08-28T00:12:38.841Z,20.15
2022-08-28T00:13:37.710Z,20.15
2022-08-28T00:14:37.750Z,20.13
2022-08-28T00:15:37.762Z,20.13
2022-08-28T00:16:37.888Z,20.12
2022-08-28T00:17:37.662Z,20.10
2022-08-28T00:18:37.841Z,20.06
2022-08-28T00:19:38.784Z,20.04
2022-08-28T00:20:37.792Z,20.00
2022-08-28T00:21:37.692Z,19.93
2022-08-28T00:22:37.802Z,19.90
2022-08-28T00:23:42.672Z,19.90
2022-08-28T00:24:38.602Z,19.91
2022-08-28T00:25:37.692Z,19.92
2022-08-28T00:26:37.542Z,19.91
2022-08-28T00:27:37.783Z,19.85
2022-08-28T00:28:37.577Z,19.83
2022-08-28T00:29:37.566Z,19.79
2022-08-28T00:30:37.497Z,19.79
2022-08-28T00:31:38.711Z,19.79
2022-08-28T00:32:37.466Z,19.77
2022-08-28T00:33:37.625Z,19.76
2022-08-28T00:34:37.474Z,19.76
2022-08-28T00:35:37.574Z,19.76
2022-08-28T00:36:37.412Z,19.76
2022-08-28T00:37:37.515Z,19.74
2022-08-28T00:38:37.395Z,19.70
2022-08-28T00:39:37.544Z,19.69
2022-08-28T00:40:37.510Z,19.69
2022-08-28T00:41:41.219Z,19.67
2022-08-28T00:42:37.336Z,19.66
2022-08-28T00:43:37.547Z,19.66
2022-08-28T00:44:37.307Z,19.66
2022-08-28T00:45:40.086Z,19.66
2022-08-28T00:46:37.405Z,19.67
2022-08-28T00:47:59.414Z,19.67
2022-08-28T00:48:37.259Z,19.65
2022-08-28T00:49:37.340Z,19.64
2022-08-28T00:50:37.236Z,19.65
2022-08-28T00:51:37.476Z,19.67
2022-08-28T00:52:37.208Z,19.70
2022-08-28T00:53:37.396Z,19.73
2022-08-28T00:54:37.184Z,19.73
2022-08-28T00:55:37.234Z,19.74
2022-08-28T00:56:37.196Z,19.74
2022-08-28T00:57:37.216Z,19.75
2022-08-28T00:58:37.176Z,19.75
2022-08-28T00:59:37.195Z,19.73
2022-08-28T01:00:37.107Z,19.71
2022-08-28T01:01:37.274Z,19.69
2022-08-28T01:02:37.092Z,19.69
2022-08-28T01:03:38.237Z,19.69
2022-08-28T01:04:37.068Z,19.70
2022-08-28T01:05:59.298Z,19.70
2022-08-28T01:06:37.027Z,19.70
2022-08-28T01:07:37.168Z,19.69
2022-08-28T01:08:37.049Z,19.68
2022-08-28T01:09:38.130Z,19.67
2022-08-28T01:10:36.970Z,19.63
2022-08-28T01:11:37.221Z,19.61
2022-08-28T01:12:36.942Z,19.60
2022-08-28T01:13:39.157Z,19.60
2022-08-28T01:14:36.966Z,19.62
2022-08-28T01:15:37.030Z,19.63
2022-08-28T01:16:36.898Z,19.65
2022-08-28T01:17:40.109Z,19.66
2022-08-28T01:18:36.889Z,19.66
2022-08-28T01:19:36.949Z,19.70
2022-08-28T01:20:36.921Z,19.74
2022-08-28T01:21:36.979Z,19.78
2022-08-28T01:22:36.819Z,19.79
2022-08-28T01:23:37.839Z,19.81
2022-08-28T01:24:36.833Z,19.81
2022-08-28T01:25:36.850Z,19.81
2022-08-28T01:26:36.787Z,19.81
2022-08-28T01:27:36.920Z,19.80
2022-08-28T01:28:36.740Z,19.80
2022-08-28T01:30:46.199Z,19.14
2022-08-28T01:31:46.088Z,19.15
2022-08-28T01:32:46.138Z,19.40
2022-08-28T01:33:45.983Z,19.57
2022-08-28T01:34:47.089Z,19.68
2022-08-28T01:35:45.969Z,19.74
2022-08-28T01:37:07.173Z,19.76
2022-08-28T01:37:45.949Z,19.74
2022-08-28T01:38:46.041Z,19.73
2022-08-28T01:39:45.889Z,19.72
2022-08-28T01:40:46.999Z,19.70
2022-08-28T01:41:45.877Z,19.69
2022-08-28T01:42:46.051Z,19.68
2022-08-28T01:43:45.890Z,19.67
2022-08-28T01:44:45.948Z,19.66
2022-08-28T01:45:45.810Z,19.65
2022-08-28T01:47:07.075Z,19.62
2022-08-28T01:47:45.790Z,19.60
2022-08-28T01:48:45.912Z,19.59
2022-08-28T01:49:45.767Z,19.58
2022-08-28T01:50:45.859Z,19.59
2022-08-28T01:51:45.732Z,19.57
2022-08-28T01:53:55.172Z,18.94
2022-08-28T01:54:54.987Z,18.95
2022-08-28T01:55:55.120Z,19.19
2022-08-28T01:56:54.965Z,19.34
2022-08-28T01:57:55.034Z,19.44
2022-08-28T01:58:54.924Z,19.50
2022-08-28T01:59:56.223Z,19.55
2022-08-28T02:00:54.915Z,19.60
2022-08-28T02:01:55.070Z,19.66
2022-08-28T02:02:54.954Z,19.72
2022-08-28T02:03:54.968Z,19.77
2022-08-28T02:04:54.844Z,19.81
2022-08-28T02:05:55.034Z,19.84
2022-08-28T02:06:54.833Z,19.83
2022-08-28T02:07:54.915Z,19.81
2022-08-28T02:08:54.865Z,19.77
2022-08-28T02:11:04.184Z,19.05
2022-08-28T02:12:04.067Z,19.06
2022-08-28T02:13:04.174Z,19.27
2022-08-28T02:14:04.035Z,19.38
2022-08-28T02:15:05.236Z,19.43
2022-08-28T02:16:04.090Z,19.48
2022-08-28T02:17:04.086Z,19.53
2022-08-28T02:18:03.998Z,19.54
2022-08-28T02:19:04.044Z,19.55
2022-08-28T02:20:03.956Z,19.57
2022-08-28T02:21:05.165Z,19.60
2022-08-28T02:22:03.936Z,19.62
2022-08-28T02:23:05.118Z,19.62
2022-08-28T02:24:03.986Z,19.63
2022-08-28T02:25:03.976Z,19.63
2022-08-28T02:26:03.889Z,19.63
2022-08-28T02:27:06.037Z,19.63
2022-08-28T02:28:03.864Z,19.63
2022-08-28T02:29:04.015Z,19.63
2022-08-28T02:30:03.847Z,19.63
2022-08-28T02:31:04.054Z,19.63
2022-08-28T02:32:03.824Z,19.64
2022-08-28T02:33:03.925Z,19.64
2022-08-28T02:34:03.793Z,19.63
2022-08-28T02:35:03.907Z,19.62
2022-08-28T02:36:04.749Z,19.61
2022-08-28T02:37:03.935Z,19.61
2022-08-28T02:38:03.783Z,19.62
2022-08-28T02:39:04.854Z,19.62
2022-08-28T02:40:03.783Z,19.61
2022-08-28T02:41:04.289Z,19.59
2022-08-28T02:42:03.681Z,19.59
2022-08-28T02:43:04.817Z,19.59
2022-08-28T02:44:03.687Z,19.60
2022-08-28T02:45:03.778Z,19.60
2022-08-28T02:46:03.726Z,19.60
2022-08-28T02:47:03.839Z,19.58
2022-08-28T02:48:03.629Z,19.57
2022-08-28T02:49:04.727Z,19.55
2022-08-28T02:50:03.616Z,19.54
2022-08-28T02:51:03.740Z,19.54
2022-08-28T02:52:03.632Z,19.53
2022-08-28T02:53:05.677Z,19.51
2022-08-28T02:54:03.518Z,19.46
2022-08-28T02:55:03.677Z,19.42
2022-08-28T02:56:03.527Z,19.39
2022-08-28T02:57:03.647Z,19.35
2022-08-28T02:58:03.522Z,19.34
2022-08-28T02:59:03.583Z,19.33
2022-08-28T03:00:03.439Z,19.32
2022-08-28T03:01:26.733Z,19.31
2022-08-28T03:02:03.410Z,19.32
2022-08-28T03:03:03.470Z,19.32
2022-08-28T03:04:03.571Z,19.32
2022-08-28T03:05:03.379Z,19.33
2022-08-28T03:06:03.610Z,19.32
2022-08-28T03:07:03.454Z,19.32
2022-08-28T03:08:03.390Z,19.31
2022-08-28T03:09:03.323Z,19.29
2022-08-28T03:10:03.483Z,19.27
2022-08-28T03:11:03.291Z,19.27
2022-08-28T03:12:24.441Z,19.24
2022-08-28T03:13:03.280Z,19.23
2022-08-28T03:14:03.461Z,19.23
2022-08-28T03:15:03.281Z,19.24
2022-08-28T03:16:03.381Z,19.27
2022-08-28T03:17:03.277Z,19.29
2022-08-28T03:18:08.339Z,19.31
2022-08-28T03:19:04.191Z,19.31
2022-08-28T03:20:03.359Z,19.28
2022-08-28T03:21:03.188Z,19.26
2022-08-28T03:22:03.292Z,19.24
2022-08-28T03:23:03.140Z,19.23
2022-08-28T03:24:04.322Z,19.23
2022-08-28T03:25:03.133Z,19.23
2022-08-28T03:26:05.209Z,19.21
2022-08-28T03:27:03.173Z,19.21
2022-08-28T03:28:04.237Z,19.21
2022-08-28T03:29:03.064Z,19.21
2022-08-28T03:30:03.185Z,19.23
2022-08-28T03:31:03.075Z,19.24
2022-08-28T03:32:03.255Z,19.24
2022-08-28T03:33:03.053Z,19.24
2022-08-28T03:34:03.252Z,19.23
2022-08-28T03:35:03.071Z,19.22
2022-08-28T03:36:04.611Z,19.21
2022-08-28T03:37:02.955Z,19.20
2022-08-28T03:38:25.376Z,19.20
2022-08-28T03:39:02.927Z,19.18
2022-08-28T03:40:03.009Z,19.17
2022-08-28T03:41:03.026Z,19.18
2022-08-28T03:42:02.894Z,19.20
2022-08-28T03:44:14.464Z,18.69
2022-08-28T03:45:12.166Z,18.69
2022-08-28T03:46:12.185Z,18.90
2022-08-28T03:47:12.186Z,19.01
2022-08-28T03:48:12.332Z,19.06
2022-08-28T03:49:12.074Z,19.08
2022-08-28T03:50:12.198Z,19.09
2022-08-28T03:51:12.047Z,19.09
2022-08-28T03:52:12.180Z,19.10
2022-08-28T03:53:12.028Z,19.13
2022-08-28T03:54:14.126Z,19.14
2022-08-28T03:55:11.989Z,19.14
2022-08-28T03:56:12.105Z,19.14
2022-08-28T03:57:11.977Z,19.13
2022-08-28T03:58:19.098Z,19.12
2022-08-28T03:59:12.938Z,19.11
2022-08-28T04:00:13.050Z,19.09
2022-08-28T04:01:11.997Z,19.08
2022-08-28T04:02:12.115Z,19.09
2022-08-28T04:03:11.919Z,19.09
2022-08-28T04:04:13.019Z,19.09
2022-08-28T04:05:11.902Z,19.09
2022-08-28T04:06:11.919Z,19.08
2022-08-28T04:07:11.958Z,19.08
2022-08-28T04:08:12.152Z,19.07
2022-08-28T04:09:11.809Z,19.06
2022-08-28T04:10:12.039Z,19.05
2022-08-28T04:11:11.778Z,19.04
2022-08-28T04:12:11.829Z,19.02
2022-08-28T04:13:11.862Z,19.01
2022-08-28T04:14:11.822Z,19.01
2022-08-28T04:15:11.732Z,19.01
2022-08-28T04:17:23.633Z,18.53
2022-08-28T04:18:22.543Z,18.53
2022-08-28T04:19:22.606Z,18.76
2022-08-28T04:20:22.503Z,18.90
2022-08-28T04:21:43.563Z,18.97
2022-08-28T04:22:22.452Z,19.00
2022-08-28T04:23:22.620Z,19.00
2022-08-28T04:24:22.473Z,18.99
2022-08-28T04:25:24.581Z,18.99
2022-08-28T04:26:22.433Z,18.98
2022-08-28T04:27:22.493Z,18.98
2022-08-28T04:28:22.364Z,18.98
2022-08-28T04:29:22.534Z,18.99
2022-08-28T04:30:22.354Z,19.01
2022-08-28T04:31:32.352Z,19.03
2022-08-28T04:32:23.324Z,19.05
2022-08-28T04:33:22.415Z,19.06
2022-08-28T04:34:22.292Z,19.07
2022-08-28T04:35:22.434Z,19.08
2022-08-28T04:36:22.264Z,19.10
2022-08-28T04:37:22.810Z,19.12
2022-08-28T04:38:23.236Z,19.15
2022-08-28T04:39:22.306Z,19.17
2022-08-28T04:40:22.223Z,19.17
2022-08-28T04:41:22.346Z,19.17
2022-08-28T04:42:22.185Z,19.16
2022-08-28T04:43:22.371Z,19.17
2022-08-28T04:44:22.216Z,19.20
2022-08-28T04:45:22.197Z,19.22
2022-08-28T04:46:22.178Z,19.23
2022-08-28T04:47:23.151Z,19.23
2022-08-28T04:48:22.108Z,19.24
2022-08-28T04:49:25.981Z,19.25
2022-08-28T04:50:22.076Z,19.26
2022-08-28T04:51:22.286Z,19.27
2022-08-28T04:52:22.075Z,19.29
2022-08-28T04:53:22.147Z,19.31
2022-08-28T04:54:22.019Z,19.31
2022-08-28T04:55:26.074Z,19.31
2022-08-28T04:56:25.189Z,19.31
2022-08-28T04:57:21.987Z,19.31
2022-08-28T04:58:23.779Z,19.32
2022-08-28T04:59:21.999Z,19.36
2022-08-28T05:00:22.090Z,19.39
2022-08-28T05:01:22.076Z,19.42
2022-08-28T05:02:24.060Z,19.45
2022-08-28T05:03:21.900Z,19.47
2022-08-28T05:04:21.948Z,19.48
2022-08-28T05:05:21.894Z,19.48
2022-08-28T05:06:22.020Z,19.49
2022-08-28T05:07:21.919Z,19.50
2022-08-28T05:08:22.878Z,19.52
2022-08-28T05:09:21.820Z,19.56
2022-08-28T05:10:21.939Z,19.61
2022-08-28T05:11:33.373Z,19.64
2022-08-28T05:12:22.846Z,19.65
2022-08-28T05:13:21.885Z,19.67
2022-08-28T05:14:21.770Z,19.70
2022-08-28T05:15:21.847Z,19.72
2022-08-28T05:16:21.816Z,19.73
2022-08-28T05:17:21.809Z,19.73
2022-08-28T05:18:21.730Z,19.75
2022-08-28T05:19:21.810Z,19.77
2022-08-28T05:20:21.690Z,19.78
2022-08-28T05:21:21.917Z,19.80
2022-08-28T05:22:21.693Z,19.82
2022-08-28T05:23:25.589Z,19.85
2022-08-28T05:24:21.641Z,19.86
2022-08-28T05:25:21.721Z,19.87
2022-08-28T05:26:21.599Z,19.87
2022-08-28T05:27:22.711Z,19.88
2022-08-28T05:28:22.643Z,19.87
2022-08-28T05:29:21.630Z,19.87
2022-08-28T05:30:21.568Z,19.86
2022-08-28T05:31:22.700Z,19.83
2022-08-28T05:32:21.532Z,19.79
2022-08-28T05:33:21.559Z,19.76
2022-08-28T05:34:21.579Z,19.73
2022-08-28T05:35:23.642Z,19.70
2022-08-28T05:36:21.482Z,19.68
2022-08-28T05:37:22.581Z,19.68
2022-08-28T05:38:21.452Z,19.68
2022-08-28T05:39:21.666Z,19.69
2022-08-28T05:40:21.528Z,19.70
2022-08-28T05:41:21.492Z,19.70
2022-08-28T05:42:21.418Z,19.69
2022-08-28T05:43:23.534Z,19.69
2022-08-28T05:44:21.352Z,19.69
2022-08-28T05:45:21.528Z,19.69
2022-08-28T05:46:21.490Z,19.70
2022-08-28T05:47:23.503Z,19.69
2022-08-28T05:48:21.384Z,19.71
2022-08-28T05:49:21.433Z,19.74
2022-08-28T05:50:21.282Z,19.76
2022-08-28T05:51:22.287Z,19.78
2022-08-28T05:52:21.273Z,19.78
2022-08-28T05:53:23.403Z,19.79
2022-08-28T05:54:21.293Z,19.80
2022-08-28T05:56:33.638Z,19.31
2022-08-28T05:57:31.409Z,19.32
2022-08-28T05:58:33.630Z,19.54
2022-08-28T05:59:31.397Z,19.66
2022-08-28T06:00:31.555Z,19.74
2022-08-28T06:01:31.434Z,19.81
2022-08-28T06:02:32.484Z,19.86
2022-08-28T06:03:31.383Z,19.89
2022-08-28T06:04:31.463Z,19.93
2022-08-28T06:05:31.337Z,19.97
2022-08-28T06:06:31.456Z,19.98
2022-08-28T06:07:31.268Z,19.97
2022-08-28T06:08:31.368Z,19.97
2022-08-28T06:09:31.357Z,20.00
2022-08-28T06:10:32.480Z,20.03
2022-08-28T06:11:31.343Z,20.07
2022-08-28T06:12:31.381Z,20.09
2022-08-28T06:13:31.188Z,20.09
2022-08-28T06:14:31.368Z,20.09
2022-08-28T06:15:31.228Z,20.11
2022-08-28T06:16:32.485Z,20.13
2022-08-28T06:17:31.202Z,20.16
2022-08-28T06:18:31.239Z,20.22
2022-08-28T06:19:31.116Z,20.27
2022-08-28T06:20:31.269Z,20.29
2022-08-28T06:21:31.099Z,20.32
2022-08-28T06:22:31.390Z,20.35
2022-08-28T06:23:31.139Z,20.39
2022-08-28T06:24:31.139Z,20.44
2022-08-28T06:25:31.304Z,20.47
2022-08-28T06:26:31.171Z,20.50
2022-08-28T06:27:31.049Z,20.52
2022-08-28T06:28:52.084Z,20.53
2022-08-28T06:29:31.051Z,20.56
2022-08-28T06:30:31.140Z,20.59
2022-08-28T06:31:33.424Z,20.62
2022-08-28T06:32:31.138Z,20.65
2022-08-28T06:33:30.967Z,20.69
2022-08-28T06:34:51.984Z,20.70
2022-08-28T06:35:30.929Z,20.72
2022-08-28T06:36:32.021Z,20.76
2022-08-28T06:37:30.880Z,20.81
2022-08-28T06:38:32.021Z,20.83
2022-08-28T06:39:30.886Z,20.85
2022-08-28T06:40:33.158Z,20.86
2022-08-28T06:41:30.852Z,20.88
2022-08-28T06:42:30.853Z,20.92
2022-08-28T06:43:30.838Z,20.95
2022-08-28T06:44:31.985Z,20.98
2022-08-28T06:45:30.853Z,21.01
2022-08-28T06:46:30.932Z,21.03
2022-08-28T06:47:30.766Z,21.04
2022-08-28T06:48:30.979Z,21.05
2022-08-28T06:49:30.743Z,21.06
2022-08-28T06:50:31.972Z,21.09
2022-08-28T06:51:30.785Z,21.10
2022-08-28T06:52:30.833Z,21.10
2022-08-28T06:53:30.662Z,21.10
2022-08-28T06:54:30.837Z,21.13
2022-08-28T06:55:30.633Z,21.16
2022-08-28T06:56:30.811Z,21.21
2022-08-28T06:57:30.673Z,21.25
2022-08-28T06:58:51.832Z,21.30
2022-08-28T06:59:30.575Z,21.35
2022-08-28T07:00:30.694Z,21.37
2022-08-28T07:01:30.626Z,21.39
2022-08-28T07:02:33.876Z,21.44
2022-08-28T07:03:30.542Z,21.48
2022-08-28T07:04:51.575Z,21.52
2022-08-28T07:05:30.585Z,21.56
2022-08-28T07:06:30.674Z,21.58
2022-08-28T07:07:31.659Z,21.62
2022-08-28T07:08:32.745Z,21.64
2022-08-28T07:09:30.446Z,21.69
2022-08-28T07:10:30.575Z,21.73
2022-08-28T07:11:30.464Z,21.76
2022-08-28T07:12:30.487Z,21.77
2022-08-28T07:13:33.789Z,21.76
2022-08-28T07:14:32.616Z,21.74
2022-08-28T07:15:30.370Z,21.71
2022-08-28T07:16:31.477Z,21.69
2022-08-28T07:17:30.346Z,21.68
2022-08-28T07:18:32.486Z,21.70
2022-08-28T07:19:30.411Z,21.75
2022-08-28T07:20:30.388Z,21.80
2022-08-28T07:21:30.284Z,21.81
2022-08-28T07:22:30.366Z,21.80
2022-08-28T07:23:30.249Z,21.79
2022-08-28T07:24:30.427Z,21.79
2022-08-28T07:25:30.291Z,21.82
2022-08-28T07:26:30.408Z,21.85
2022-08-28T07:27:30.198Z,21.87
2022-08-28T07:28:30.258Z,21.87
2022-08-28T07:29:30.177Z,21.87
2022-08-28T07:30:31.227Z,21.87
2022-08-28T07:31:30.273Z,21.87
2022-08-28T07:32:35.569Z,21.88
2022-08-28T07:33:30.119Z,21.88
2022-08-28T07:34:30.268Z,21.91
2022-08-28T07:35:30.093Z,21.93
2022-08-28T07:36:31.229Z,21.96
2022-08-28T07:37:30.107Z,21.96
2022-08-28T07:38:30.239Z,21.95
2022-08-28T07:39:30.090Z,21.97
2022-08-28T07:40:30.228Z,21.99
2022-08-28T07:41:30.012Z,22.00
2022-08-28T07:42:32.847Z,22.00
2022-08-28T07:43:31.021Z,22.02
2022-08-28T07:44:51.107Z,22.05
2022-08-28T07:45:30.012Z,22.07
2022-08-28T07:46:29.982Z,22.08
2022-08-28T07:47:29.970Z,22.11
2022-08-28T07:48:30.021Z,22.12
2022-08-28T07:49:29.922Z,22.10
2022-08-28T07:50:30.979Z,22.09
2022-08-28T07:51:29.898Z,22.08
2022-08-28T07:52:29.990Z,22.10
2022-08-28T07:53:34.419Z,22.14
2022-08-28T07:54:30.850Z,22.13
2022-08-28T07:55:50.992Z,22.11
2022-08-28T07:56:29.924Z,22.11
2022-08-28T07:57:32.031Z,22.11
2022-08-28T07:58:29.779Z,22.11
2022-08-28T07:59:36.477Z,22.11
2022-08-28T08:00:30.843Z,22.13
2022-08-28T08:02:39.218Z,21.73
2022-08-28T08:03:39.075Z,21.73
2022-08-28T08:04:39.159Z,21.99
2022-08-28T08:05:39.028Z,22.13
2022-08-28T08:06:39.041Z,22.23
2022-08-28T08:07:38.918Z,22.28
2022-08-28T08:08:38.988Z,22.30
2022-08-28T08:09:39.017Z,22.33
2022-08-28T08:10:39.020Z,22.36
2022-08-28T08:11:38.898Z,22.39
2022-08-28T08:13:48.399Z,22.08
2022-08-28T08:14:48.141Z,22.08
2022-08-28T08:15:48.244Z,22.32
2022-08-28T08:16:48.233Z,22.48
2022-08-28T08:17:48.184Z,22.58
2022-08-28T08:18:48.116Z,22.65
2022-08-28T08:19:48.068Z,22.69
2022-08-28T08:20:48.204Z,22.73
2022-08-28T08:21:48.025Z,22.78
2022-08-28T08:22:50.245Z,22.84
2022-08-28T08:23:47.995Z,22.88
2022-08-28T08:24:49.135Z,22.90
2022-08-28T08:25:47.992Z,22.91
2022-08-28T08:26:50.875Z,22.93
2022-08-28T08:27:48.970Z,22.95
2022-08-28T08:28:48.047Z,22.95
2022-08-28T08:29:47.935Z,22.96
2022-08-28T08:30:50.213Z,22.97
2022-08-28T08:31:47.984Z,22.98
2022-08-28T08:32:49.106Z,23.00
2022-08-28T08:33:47.906Z,23.00
2022-08-28T08:34:48.030Z,23.01
2022-08-28T08:35:47.877Z,23.01
2022-08-28T08:36:47.991Z,23.01
2022-08-28T08:37:47.838Z,23.01
2022-08-28T08:38:47.859Z,23.01
2022-08-28T08:39:47.834Z,23.01
2022-08-28T08:40:47.843Z,23.02
2022-08-28T08:41:47.772Z,23.04
2022-08-28T08:42:47.895Z,23.02
2022-08-28T08:43:47.757Z,23.01
2022-08-28T08:44:47.840Z,22.98
2022-08-28T08:45:47.748Z,22.97
2022-08-28T08:46:47.758Z,22.94
2022-08-28T08:47:47.739Z,22.92
2022-08-28T08:48:47.729Z,22.91
2022-08-28T08:49:47.670Z,22.93
2022-08-28T08:50:47.838Z,22.94
2022-08-28T08:51:47.639Z,22.93
2022-08-28T08:52:47.729Z,22.90
2022-08-28T08:53:47.610Z,22.89
2022-08-28T08:54:47.679Z,22.87
2022-08-28T08:55:47.733Z,22.86
2022-08-28T08:56:47.690Z,22.84
2022-08-28T08:57:49.285Z,22.84
2022-08-28T08:58:47.599Z,22.85
2022-08-28T08:59:47.584Z,22.87
2022-08-28T09:00:47.606Z,22.89
2022-08-28T09:01:47.551Z,22.92
2022-08-28T09:03:08.607Z,22.95
2022-08-28T09:03:47.548Z,22.97
2022-08-28T09:04:47.666Z,23.00
2022-08-28T09:05:47.477Z,23.02
2022-08-28T09:06:47.612Z,23.05
2022-08-28T09:07:51.373Z,23.09
2022-08-28T09:08:48.467Z,23.09
2022-08-28T09:09:47.572Z,23.08
2022-08-28T09:10:47.436Z,23.07
2022-08-28T09:11:50.351Z,23.08
2022-08-28T09:12:48.394Z,23.08
2022-08-28T09:13:48.625Z,23.08
2022-08-28T09:14:47.343Z,23.08
2022-08-28T09:15:50.523Z,23.08
2022-08-28T09:16:47.347Z,23.07
2022-08-28T09:17:47.321Z,23.07
2022-08-28T09:18:47.343Z,23.09
2022-08-28T09:19:48.458Z,23.11
2022-08-28T09:20:47.253Z,23.13
2022-08-28T09:21:47.365Z,23.13
2022-08-28T09:22:47.233Z,23.13
2022-08-28T09:23:47.365Z,23.13
2022-08-28T09:24:47.274Z,23.14
2022-08-28T09:25:47.295Z,23.13
2022-08-28T09:26:47.183Z,23.10
2022-08-28T09:27:47.335Z,23.08
2022-08-28T09:28:47.155Z,23.08
2022-08-28T09:29:47.268Z,23.07
2022-08-28T09:30:47.178Z,23.07
2022-08-28T09:31:47.378Z,23.07
2022-08-28T09:32:47.176Z,23.04
2022-08-28T09:33:47.145Z,23.04
2022-08-28T09:34:47.067Z,23.06
2022-08-28T09:35:47.177Z,23.10
2022-08-28T09:36:47.066Z,23.15
2022-08-28T09:37:47.157Z,23.21
2022-08-28T09:38:47.027Z,23.26
2022-08-28T09:39:49.008Z,23.28
2022-08-28T09:40:46.996Z,23.31
2022-08-28T09:41:47.336Z,23.33
2022-08-28T09:42:46.985Z,23.34
2022-08-28T09:43:47.126Z,23.35
2022-08-28T09:44:46.957Z,23.36
2022-08-28T09:45:46.928Z,23.36
2022-08-28T09:46:47.202Z,23.37
2022-08-28T09:47:47.357Z,23.40
2022-08-28T09:48:47.039Z,23.41
2022-08-28T09:49:46.888Z,23.41
2022-08-28T09:51:07.971Z,23.40
2022-08-28T09:51:46.854Z,23.38
2022-08-28T09:52:49.050Z,23.35
2022-08-28T09:53:46.863Z,23.33
2022-08-28T09:54:47.055Z,23.34
2022-08-28T09:55:46.791Z,23.30
2022-08-28T09:56:48.890Z,23.26
2022-08-28T09:57:46.790Z,23.24
2022-08-28T09:58:46.842Z,23.25
2022-08-28T09:59:46.767Z,23.25
2022-08-28T10:00:46.890Z,23.26
2022-08-28T10:01:46.790Z,23.27
2022-08-28T10:02:47.830Z,23.30
2022-08-28T10:03:46.692Z,23.32
2022-08-28T10:04:49.174Z,23.32
2022-08-28T10:05:46.830Z,23.33
2022-08-28T10:06:46.772Z,23.36
2022-08-28T10:07:46.643Z,23.39
2022-08-28T10:09:07.690Z,23.43
2022-08-28T10:09:47.757Z,23.47
2022-08-28T10:10:47.772Z,23.50
2022-08-28T10:11:46.655Z,23.54
2022-08-28T10:12:46.683Z,23.59
2022-08-28T10:13:46.598Z,23.65
2022-08-28T10:15:07.694Z,23.70
2022-08-28T10:15:46.580Z,23.77
2022-08-28T10:16:46.653Z,23.81
2022-08-28T10:17:46.529Z,23.85
2022-08-28T10:18:47.634Z,23.88
2022-08-28T10:19:46.733Z,23.91
2022-08-28T10:20:46.624Z,23.94
2022-08-28T10:21:46.484Z,23.96
2022-08-28T10:22:46.657Z,23.96
2022-08-28T10:23:46.453Z,23.99
2022-08-28T10:25:07.561Z,24.01
2022-08-28T10:25:46.450Z,24.06
2022-08-28T10:26:46.525Z,24.10
2022-08-28T10:27:46.455Z,24.13
2022-08-28T10:28:47.554Z,24.15
2022-08-28T10:29:46.375Z,24.17
2022-08-28T10:30:46.538Z,24.17
2022-08-28T10:31:46.328Z,24.18
2022-08-28T10:32:46.479Z,24.20
2022-08-28T10:33:46.376Z,24.21
2022-08-28T10:34:46.365Z,24.21
2022-08-28T10:35:46.328Z,24.21
2022-08-28T10:36:47.527Z,24.22
2022-08-28T10:37:46.254Z,24.25
2022-08-28T10:38:51.198Z,24.27
2022-08-28T10:39:47.227Z,24.29
2022-08-28T10:40:46.456Z,24.30
2022-08-28T10:41:46.338Z,24.30
2022-08-28T10:43:07.207Z,24.31
2022-08-28T10:43:48.011Z,24.33
2022-08-28T10:44:46.248Z,24.37
2022-08-28T10:45:46.192Z,24.40
2022-08-28T10:46:46.407Z,24.42
2022-08-28T10:47:46.158Z,24.44
2022-08-28T10:48:46.217Z,24.45
2022-08-28T10:49:46.097Z,24.49
2022-08-28T10:50:46.253Z,24.55
2022-08-28T10:51:46.059Z,24.61
2022-08-28T10:52:48.176Z,24.67
2022-08-28T10:53:46.140Z,24.68
2022-08-28T10:54:47.179Z,24.65
2022-08-28T10:55:46.012Z,24.61
2022-08-28T10:56:46.179Z,24.58
2022-08-28T10:57:46.981Z,24.58
2022-08-28T10:58:46.172Z,24.60
2022-08-28T10:59:46.042Z,24.60
2022-08-28T11:00:46.130Z,24.62
2022-08-28T11:01:46.019Z,24.61
2022-08-28T11:02:46.105Z,24.61
2022-08-28T11:03:45.908Z,24.64
2022-08-28T11:04:47.022Z,24.67
2022-08-28T11:05:53.421Z,24.68
2022-08-28T11:06:46.872Z,24.69
2022-08-28T11:07:46.931Z,24.71
2022-08-28T11:08:45.889Z,24.72
2022-08-28T11:09:45.942Z,24.72
2022-08-28T11:10:45.872Z,24.74
2022-08-28T11:11:46.024Z,24.73
2022-08-28T11:12:45.790Z,24.74
2022-08-28T11:13:45.993Z,24.74
2022-08-28T11:14:48.459Z,24.74
2022-08-28T11:15:46.882Z,24.75
2022-08-28T11:16:45.771Z,24.75
2022-08-28T11:17:49.051Z,24.76
2022-08-28T11:18:45.714Z,24.77
2022-08-28T11:19:50.266Z,24.76
2022-08-28T11:20:46.687Z,24.75
2022-08-28T11:21:45.915Z,24.73
2022-08-28T11:22:45.696Z,24.72
2022-08-28T11:23:49.033Z,24.72
2022-08-28T11:24:45.632Z,24.74
2022-08-28T11:25:45.715Z,24.77
2022-08-28T11:26:45.606Z,24.79
2022-08-28T11:27:45.752Z,24.82
2022-08-28T11:28:45.591Z,24.88
2022-08-28T11:29:45.826Z,24.93
2022-08-28T11:30:45.657Z,25.00
2022-08-28T11:31:45.725Z,25.07
2022-08-28T11:32:47.006Z,25.15
2022-08-28T11:33:45.572Z,25.23
2022-08-28T11:34:45.564Z,25.31
2022-08-28T11:35:45.717Z,25.34
2022-08-28T11:36:45.536Z,25.36
2022-08-28T11:37:45.628Z,25.39
2022-08-28T11:38:45.449Z,25.45
2022-08-28T11:39:45.528Z,25.51
2022-08-28T11:40:45.447Z,25.56
2022-08-28T11:41:45.573Z,25.58
2022-08-28T11:42:45.428Z,25.58
2022-08-28T11:43:45.428Z,25.54
2022-08-28T11:44:45.486Z,25.52
2022-08-28T11:45:46.623Z,25.48
2022-08-28T11:46:45.369Z,25.48
2022-08-28T11:47:45.568Z,25.50
2022-08-28T11:48:45.319Z,25.55
2022-08-28T11:49:45.439Z,25.61
2022-08-28T11:50:45.298Z,25.63
2022-08-28T11:51:46.619Z,25.62
2022-08-28T11:52:45.632Z,25.63
2022-08-28T11:53:45.309Z,25.64
2022-08-28T11:54:45.241Z,25.68
2022-08-28T11:55:46.372Z,25.74
2022-08-28T11:56:45.280Z,25.80
2022-08-28T11:57:46.429Z,25.90
2022-08-28T11:58:45.421Z,25.98
2022-08-28T11:59:46.347Z,26.09
2022-08-28T12:00:45.161Z,26.21
2022-08-28T12:01:46.272Z,26.30
2022-08-28T12:02:45.225Z,26.37
2022-08-28T12:03:45.182Z,26.38
2022-08-28T12:04:45.194Z,26.34
2022-08-28T12:05:45.471Z,26.30
2022-08-28T12:06:45.082Z,26.24
2022-08-28T12:07:47.255Z,26.19
2022-08-28T12:08:45.114Z,26.17
2022-08-28T12:09:45.192Z,26.11
2022-08-28T12:10:45.103Z,26.03
2022-08-28T12:11:45.123Z,25.97
2022-08-28T12:12:45.003Z,25.94
2022-08-28T12:13:45.065Z,25.93
2022-08-28T12:14:44.983Z,25.92
2022-08-28T12:15:45.256Z,25.89
2022-08-28T12:16:45.101Z,25.88
2022-08-28T12:17:45.134Z,25.90
2022-08-28T12:18:44.925Z,25.94
2022-08-28T12:19:54.603Z,25.99
2022-08-28T12:20:45.932Z,26.06
2022-08-28T12:21:45.025Z,26.14
2022-08-28T12:22:44.923Z,26.23
2022-08-28T12:23:44.942Z,26.31
2022-08-28T12:24:44.923Z,26.40
2022-08-28T12:25:46.289Z,26.49
2022-08-28T12:26:44.822Z,26.57
2022-08-28T12:27:45.943Z,26.64
2022-08-28T12:28:44.839Z,26.70
2022-08-28T12:29:45.924Z,26.76
2022-08-28T12:30:44.851Z,26.78
2022-08-28T12:31:45.956Z,26.75
2022-08-28T12:32:44.740Z,26.73
2022-08-28T12:33:44.919Z,26.73
2022-08-28T12:34:44.757Z,26.72
2022-08-28T12:35:44.918Z,26.73
2022-08-28T12:36:47.821Z,26.74
2022-08-28T12:37:53.110Z,26.73
2022-08-28T12:38:45.669Z,26.67
2022-08-28T12:39:44.721Z,26.61
2022-08-28T12:40:44.720Z,26.56
2022-08-28T12:41:45.778Z,26.52
2022-08-28T12:42:44.662Z,26.51
2022-08-28T12:44:07.719Z,26.51
2022-08-28T12:44:44.643Z,26.53
2022-08-28T12:45:44.802Z,26.54
2022-08-28T12:46:44.580Z,26.54
2022-08-28T12:47:45.690Z,26.55
2022-08-28T12:48:44.552Z,26.55
2022-08-28T12:49:45.631Z,26.49
2022-08-28T12:50:44.513Z,26.41
2022-08-28T12:51:44.591Z,26.35
2022-08-28T12:52:44.484Z,26.31
2022-08-28T12:53:44.671Z,26.28
2022-08-28T12:54:44.459Z,26.22
2022-08-28T12:55:46.733Z,26.17
2022-08-28T12:56:46.517Z,26.15
2022-08-28T12:57:46.517Z,26.12
2022-08-28T12:58:44.437Z,26.10
2022-08-28T12:59:44.466Z,26.05
2022-08-28T13:00:44.359Z,26.03
2022-08-28T13:01:45.535Z,26.04